sensor_id;sensor_type;location;lat;lon;timestamp;P1;durP1;ratioP1;P2;durP2;ratioP2
71667;SDS011;59504;54.806;9.640;2022-12-07T00:00:17;19.40;;;7.63;;
71667;SDS011;59504;54.806;9.640;2022-12-07T00:02:37;16.70;;;8.50;;
71667;SDS011;59504;54.806;9.640;2022-12-07T00:04:58;21.00;;;9.55;;
71667;SDS011;59504;54.806;9.640;2022-12-07T00:07:19;17.30;;;8.18;;
71667;SDS011;59504;54.806;9.640;2022-12-07T00:09:39;19.48;;;8.30;;
71667;SDS011;59504;54.806;9.640;2022-12-07T00:12:01;17.83;;;8.75;;
71667;SDS011;59504;54.806;9.640;2022-12-07T00:14:03;19.85;;;8.38;;
71667;SDS011;59504;54.806;9.640;2022-12-07T00:16:08;19.05;;;8.55;;
71667;SDS011;59504;54.806;9.640;2022-12-07T00:18:29;18.23;;;7.63;;
71667;SDS011;59504;54.806;9.640;2022-12-07T00:20:50;20.35;;;7.60;;
71667;SDS011;59504;54.806;9.640;2022-12-07T00:23:11;16.35;;;8.13;;
71667;SDS011;59504;54.806;9.640;2022-12-07T00:25:31;17.52;;;7.60;;
71667;SDS011;59504;54.806;9.640;2022-12-07T00:27:52;14.13;;;7.32;;
71667;SDS011;59504;54.806;9.640;2022-12-07T00:30:16;17.27;;;7.45;;
71667;SDS011;59504;54.806;9.640;2022-12-07T00:32:36;14.77;;;7.00;;
71667;SDS011;59504;54.806;9.640;2022-12-07T00:34:57;18.65;;;7.25;;
71667;SDS011;59504;54.806;9.640;2022-12-07T00:37:18;13.35;;;6.80;;
71667;SDS011;59504;54.806;9.640;2022-12-07T00:39:38;12.38;;;6.75;;
71667;SDS011;59504;54.806;9.640;2022-12-07T00:41:59;14.13;;;6.75;;
71667;SDS011;59504;54.806;9.640;2022-12-07T00:44:08;14.35;;;6.70;;
71667;SDS011;59504;54.806;9.640;2022-12-07T00:46:29;15.43;;;7.20;;
71667;SDS011;59504;54.806;9.640;2022-12-07T00:48:51;15.75;;;7.60;;
71667;SDS011;59504;54.806;9.640;2022-12-07T00:51:13;15.98;;;8.45;;
71667;SDS011;59504;54.806;9.640;2022-12-07T00:53:34;13.32;;;7.97;;
71667;SDS011;59504;54.806;9.640;2022-12-07T00:55:56;14.65;;;7.75;;
71667;SDS011;59504;54.806;9.640;2022-12-07T00:58:17;15.25;;;7.88;;
71667;SDS011;59504;54.806;9.640;2022-12-07T01:00:39;15.90;;;8.13;;
71667;SDS011;59504;54.806;9.640;2022-12-07T01:03:00;13.18;;;7.38;;
71667;SDS011;59504;54.806;9.640;2022-12-07T01:05:21;17.90;;;8.38;;
71667;SDS011;59504;54.806;9.640;2022-12-07T01:07:41;16.27;;;7.38;;
71667;SDS011;59504;54.806;9.640;2022-12-07T01:10:02;14.85;;;7.38;;
71667;SDS011;59504;54.806;9.640;2022-12-07T01:12:23;17.33;;;8.35;;
71667;SDS011;59504;54.806;9.640;2022-12-07T01:14:44;14.90;;;7.13;;
71667;SDS011;59504;54.806;9.640;2022-12-07T01:17:04;14.10;;;7.28;;
71667;SDS011;59504;54.806;9.640;2022-12-07T01:19:25;13.30;;;7.32;;
71667;SDS011;59504;54.806;9.640;2022-12-07T01:21:46;14.85;;;8.30;;
71667;SDS011;59504;54.806;9.640;2022-12-07T01:24:08;15.27;;;7.68;;
71667;SDS011;59504;54.806;9.640;2022-12-07T01:26:30;16.48;;;8.43;;
71667;SDS011;59504;54.806;9.640;2022-12-07T01:28:52;15.75;;;8.38;;
71667;SDS011;59504;54.806;9.640;2022-12-07T01:31:19;15.68;;;7.65;;
71667;SDS011;59504;54.806;9.640;2022-12-07T01:33:40;15.00;;;7.72;;
71667;SDS011;59504;54.806;9.640;2022-12-07T01:35:43;15.95;;;6.93;;
71667;SDS011;59504;54.806;9.640;2022-12-07T01:37:44;14.73;;;7.20;;
71667;SDS011;59504;54.806;9.640;2022-12-07T01:39:47;13.20;;;7.10;;
71667;SDS011;59504;54.806;9.640;2022-12-07T01:41:49;14.90;;;7.85;;
71667;SDS011;59504;54.806;9.640;2022-12-07T01:46:49;16.33;;;7.20;;
71667;SDS011;59504;54.806;9.640;2022-12-07T01:49:14;13.77;;;7.35;;
71667;SDS011;59504;54.806;9.640;2022-12-07T01:51:23;14.38;;;7.50;;
71667;SDS011;59504;54.806;9.640;2022-12-07T01:53:44;12.95;;;7.03;;
71667;SDS011;59504;54.806;9.640;2022-12-07T01:55:46;14.05;;;7.38;;
71667;SDS011;59504;54.806;9.640;2022-12-07T01:58:09;15.88;;;7.25;;
71667;SDS011;59504;54.806;9.640;2022-12-07T02:00:31;15.75;;;8.20;;
71667;SDS011;59504;54.806;9.640;2022-12-07T02:02:53;16.33;;;7.85;;
71667;SDS011;59504;54.806;9.640;2022-12-07T02:05:19;12.68;;;6.72;;
71667;SDS011;59504;54.806;9.640;2022-12-07T02:07:40;14.48;;;7.65;;
71667;SDS011;59504;54.806;9.640;2022-12-07T02:10:14;14.50;;;7.30;;
71667;SDS011;59504;54.806;9.640;2022-12-07T02:12:44;13.95;;;7.43;;
71667;SDS011;59504;54.806;9.640;2022-12-07T02:15:07;13.32;;;7.07;;
71667;SDS011;59504;54.806;9.640;2022-12-07T02:17:31;13.93;;;7.32;;
71667;SDS011;59504;54.806;9.640;2022-12-07T02:27:46;13.02;;;7.05;;
71667;SDS011;59504;54.806;9.640;2022-12-07T02:31:55;15.85;;;7.63;;
71667;SDS011;59504;54.806;9.640;2022-12-07T02:34:11;17.33;;;8.00;;
71667;SDS011;59504;54.806;9.640;2022-12-07T02:36:17;15.45;;;7.90;;
71667;SDS011;59504;54.806;9.640;2022-12-07T02:38:38;15.23;;;7.50;;
71667;SDS011;59504;54.806;9.640;2022-12-07T02:45:47;14.25;;;7.55;;
71667;SDS011;59504;54.806;9.640;2022-12-07T02:48:10;16.88;;;8.18;;
71667;SDS011;59504;54.806;9.640;2022-12-07T02:50:15;16.45;;;8.13;;
71667;SDS011;59504;54.806;9.640;2022-12-07T02:52:39;16.10;;;7.53;;
71667;SDS011;59504;54.806;9.640;2022-12-07T02:55:00;15.13;;;8.25;;
71667;SDS011;59504;54.806;9.640;2022-12-07T03:00:20;14.65;;;8.00;;
71667;SDS011;59504;54.806;9.640;2022-12-07T03:02:45;15.95;;;8.32;;
71667;SDS011;59504;54.806;9.640;2022-12-07T03:09:59;16.63;;;8.53;;
71667;SDS011;59504;54.806;9.640;2022-12-07T03:12:32;17.00;;;9.10;;
71667;SDS011;59504;54.806;9.640;2022-12-07T03:15:00;19.85;;;8.52;;
71667;SDS011;59504;54.806;9.640;2022-12-07T03:17:27;16.58;;;7.90;;
71667;SDS011;59504;54.806;9.640;2022-12-07T03:19:53;16.58;;;8.88;;
71667;SDS011;59504;54.806;9.640;2022-12-07T03:22:17;16.00;;;8.63;;
71667;SDS011;59504;54.806;9.640;2022-12-07T03:24:42;18.63;;;8.48;;
71667;SDS011;59504;54.806;9.640;2022-12-07T03:27:07;17.05;;;8.50;;
71667;SDS011;59504;54.806;9.640;2022-12-07T03:29:44;16.73;;;8.95;;
71667;SDS011;59504;54.806;9.640;2022-12-07T03:32:14;16.58;;;8.05;;
71667;SDS011;59504;54.806;9.640;2022-12-07T03:34:46;15.82;;;7.93;;
71667;SDS011;59504;54.806;9.640;2022-12-07T03:42:33;15.75;;;8.48;;
71667;SDS011;59504;54.806;9.640;2022-12-07T03:44:54;15.02;;;7.90;;
71667;SDS011;59504;54.806;9.640;2022-12-07T03:47:17;19.42;;;8.93;;
71667;SDS011;59504;54.806;9.640;2022-12-07T03:50:00;15.68;;;7.22;;
71667;SDS011;59504;54.806;9.640;2022-12-07T03:52:18;14.80;;;7.93;;
71667;SDS011;59504;54.806;9.640;2022-12-07T03:57:12;16.65;;;8.02;;
71667;SDS011;59504;54.806;9.640;2022-12-07T03:59:33;18.38;;;8.57;;
71667;SDS011;59504;54.806;9.640;2022-12-07T04:01:55;14.95;;;6.82;;
71667;SDS011;59504;54.806;9.640;2022-12-07T04:04:17;17.95;;;7.32;;
71667;SDS011;59504;54.806;9.640;2022-12-07T04:06:37;16.20;;;7.40;;
71667;SDS011;59504;54.806;9.640;2022-12-07T04:08:58;15.15;;;7.82;;
71667;SDS011;59504;54.806;9.640;2022-12-07T04:11:19;15.93;;;7.15;;
71667;SDS011;59504;54.806;9.640;2022-12-07T04:13:39;15.65;;;7.45;;
71667;SDS011;59504;54.806;9.640;2022-12-07T04:15:58;12.95;;;7.07;;
71667;SDS011;59504;54.806;9.640;2022-12-07T04:18:19;12.93;;;6.43;;
71667;SDS011;59504;54.806;9.640;2022-12-07T04:20:40;14.15;;;7.35;;
71667;SDS011;59504;54.806;9.640;2022-12-07T04:23:01;14.55;;;7.20;;
71667;SDS011;59504;54.806;9.640;2022-12-07T04:25:21;14.73;;;7.40;;
71667;SDS011;59504;54.806;9.640;2022-12-07T04:27:42;12.98;;;6.60;;
71667;SDS011;59504;54.806;9.640;2022-12-07T04:30:03;13.55;;;6.75;;
71667;SDS011;59504;54.806;9.640;2022-12-07T04:32:24;13.35;;;6.63;;
71667;SDS011;59504;54.806;9.640;2022-12-07T04:34:45;13.25;;;6.60;;
71667;SDS011;59504;54.806;9.640;2022-12-07T04:37:05;13.40;;;6.90;;
71667;SDS011;59504;54.806;9.640;2022-12-07T04:39:30;13.50;;;6.20;;
71667;SDS011;59504;54.806;9.640;2022-12-07T04:41:36;14.43;;;7.10;;
71667;SDS011;59504;54.806;9.640;2022-12-07T04:43:58;13.07;;;6.72;;
71667;SDS011;59504;54.806;9.640;2022-12-07T04:46:20;17.15;;;7.65;;
71667;SDS011;59504;54.806;9.640;2022-12-07T04:48:41;14.25;;;7.32;;
71667;SDS011;59504;54.806;9.640;2022-12-07T04:51:02;15.60;;;7.18;;
71667;SDS011;59504;54.806;9.640;2022-12-07T04:53:23;15.63;;;6.68;;
71667;SDS011;59504;54.806;9.640;2022-12-07T04:55:24;16.17;;;7.15;;
71667;SDS011;59504;54.806;9.640;2022-12-07T04:57:45;14.65;;;7.28;;
71667;SDS011;59504;54.806;9.640;2022-12-07T05:00:05;15.82;;;6.95;;
71667;SDS011;59504;54.806;9.640;2022-12-07T05:02:09;13.00;;;6.85;;
71667;SDS011;59504;54.806;9.640;2022-12-07T05:04:30;12.60;;;6.60;;
71667;SDS011;59504;54.806;9.640;2022-12-07T05:06:50;12.93;;;5.75;;
71667;SDS011;59504;54.806;9.640;2022-12-07T05:09:11;11.07;;;5.68;;
71667;SDS011;59504;54.806;9.640;2022-12-07T05:11:31;13.65;;;6.45;;
71667;SDS011;59504;54.806;9.640;2022-12-07T05:13:58;11.98;;;5.35;;
71667;SDS011;59504;54.806;9.640;2022-12-07T05:16:19;10.20;;;5.13;;
71667;SDS011;59504;54.806;9.640;2022-12-07T05:18:39;10.35;;;4.50;;
71667;SDS011;59504;54.806;9.640;2022-12-07T05:21:00;13.23;;;5.03;;
71667;SDS011;59504;54.806;9.640;2022-12-07T05:23:20;11.35;;;4.72;;
71667;SDS011;59504;54.806;9.640;2022-12-07T05:25:41;10.65;;;4.57;;
71667;SDS011;59504;54.806;9.640;2022-12-07T05:28:02;14.82;;;4.88;;
71667;SDS011;59504;54.806;9.640;2022-12-07T05:30:24;14.43;;;5.05;;
71667;SDS011;59504;54.806;9.640;2022-12-07T05:32:45;10.88;;;4.80;;
71667;SDS011;59504;54.806;9.640;2022-12-07T05:35:05;14.85;;;5.05;;
71667;SDS011;59504;54.806;9.640;2022-12-07T05:37:26;8.68;;;4.55;;
71667;SDS011;59504;54.806;9.640;2022-12-07T05:39:47;10.50;;;4.82;;
71667;SDS011;59504;54.806;9.640;2022-12-07T05:42:07;12.63;;;4.55;;
71667;SDS011;59504;54.806;9.640;2022-12-07T05:44:32;11.57;;;4.75;;
71667;SDS011;59504;54.806;9.640;2022-12-07T05:46:53;10.95;;;5.00;;
71667;SDS011;59504;54.806;9.640;2022-12-07T05:49:14;12.35;;;4.25;;
71667;SDS011;59504;54.806;9.640;2022-12-07T05:51:34;16.58;;;4.93;;
71667;SDS011;59504;54.806;9.640;2022-12-07T05:53:55;11.88;;;4.63;;
71667;SDS011;59504;54.806;9.640;2022-12-07T05:56:15;12.88;;;3.92;;
71667;SDS011;59504;54.806;9.640;2022-12-07T05:58:36;14.88;;;4.38;;
71667;SDS011;59504;54.806;9.640;2022-12-07T06:01:15;20.17;;;10.57;;
71667;SDS011;59504;54.806;9.640;2022-12-07T06:03:36;31.48;;;11.65;;
71667;SDS011;59504;54.806;9.640;2022-12-07T06:05:56;50.50;;;12.65;;
71667;SDS011;59504;54.806;9.640;2022-12-07T06:08:17;31.05;;;9.93;;
71667;SDS011;59504;54.806;9.640;2022-12-07T06:10:38;11.25;;;4.55;;
71667;SDS011;59504;54.806;9.640;2022-12-07T06:12:58;10.05;;;3.95;;
71667;SDS011;59504;54.806;9.640;2022-12-07T06:15:19;10.27;;;4.13;;
71667;SDS011;59504;54.806;9.640;2022-12-07T06:17:38;15.18;;;3.53;;
71667;SDS011;59504;54.806;9.640;2022-12-07T06:19:58;8.05;;;3.53;;
71667;SDS011;59504;54.806;9.640;2022-12-07T06:22:17;13.85;;;3.50;;
71667;SDS011;59504;54.806;9.640;2022-12-07T06:24:37;11.27;;;3.42;;
71667;SDS011;59504;54.806;9.640;2022-12-07T06:26:57;14.20;;;4.00;;
71667;SDS011;59504;54.806;9.640;2022-12-07T06:29:17;9.23;;;2.90;;
71667;SDS011;59504;54.806;9.640;2022-12-07T06:31:37;19.60;;;3.45;;
71667;SDS011;59504;54.806;9.640;2022-12-07T06:34:00;9.85;;;3.33;;
71667;SDS011;59504;54.806;9.640;2022-12-07T06:36:21;15.35;;;3.10;;
71667;SDS011;59504;54.806;9.640;2022-12-07T06:38:40;12.32;;;2.80;;
71667;SDS011;59504;54.806;9.640;2022-12-07T06:40:59;7.45;;;2.85;;
71667;SDS011;59504;54.806;9.640;2022-12-07T06:43:18;11.65;;;2.95;;
71667;SDS011;59504;54.806;9.640;2022-12-07T06:45:37;11.00;;;3.20;;
71667;SDS011;59504;54.806;9.640;2022-12-07T06:47:56;14.50;;;3.22;;
71667;SDS011;59504;54.806;9.640;2022-12-07T06:50:15;8.73;;;2.92;;
71667;SDS011;59504;54.806;9.640;2022-12-07T06:52:35;8.57;;;2.53;;
71667;SDS011;59504;54.806;9.640;2022-12-07T06:54:54;8.77;;;2.63;;
71667;SDS011;59504;54.806;9.640;2022-12-07T06:57:13;11.82;;;2.88;;
71667;SDS011;59504;54.806;9.640;2022-12-07T06:59:32;10.45;;;2.67;;
71667;SDS011;59504;54.806;9.640;2022-12-07T07:01:51;14.32;;;2.40;;
71667;SDS011;59504;54.806;9.640;2022-12-07T07:04:10;10.15;;;2.35;;
71667;SDS011;59504;54.806;9.640;2022-12-07T07:06:29;12.57;;;2.40;;
71667;SDS011;59504;54.806;9.640;2022-12-07T07:08:49;9.40;;;2.28;;
71667;SDS011;59504;54.806;9.640;2022-12-07T07:11:08;13.80;;;2.10;;
71667;SDS011;59504;54.806;9.640;2022-12-07T07:13:28;8.40;;;1.98;;
71667;SDS011;59504;54.806;9.640;2022-12-07T07:15:48;14.65;;;2.17;;
71667;SDS011;59504;54.806;9.640;2022-12-07T07:18:07;10.57;;;2.40;;
71667;SDS011;59504;54.806;9.640;2022-12-07T07:20:26;6.47;;;2.05;;
71667;SDS011;59504;54.806;9.640;2022-12-07T07:22:45;8.52;;;2.25;;
71667;SDS011;59504;54.806;9.640;2022-12-07T07:25:04;9.15;;;2.30;;
71667;SDS011;59504;54.806;9.640;2022-12-07T07:27:24;14.95;;;1.85;;
71667;SDS011;59504;54.806;9.640;2022-12-07T07:29:43;10.40;;;2.10;;
71667;SDS011;59504;54.806;9.640;2022-12-07T07:32:03;16.63;;;1.85;;
71667;SDS011;59504;54.806;9.640;2022-12-07T07:34:22;8.02;;;2.00;;
71667;SDS011;59504;54.806;9.640;2022-12-07T07:36:41;20.67;;;2.22;;
71667;SDS011;59504;54.806;9.640;2022-12-07T07:39:00;8.73;;;1.85;;
71667;SDS011;59504;54.806;9.640;2022-12-07T07:41:19;16.45;;;1.77;;
71667;SDS011;59504;54.806;9.640;2022-12-07T07:43:38;9.18;;;2.03;;
71667;SDS011;59504;54.806;9.640;2022-12-07T07:45:57;13.40;;;2.10;;
71667;SDS011;59504;54.806;9.640;2022-12-07T07:48:16;12.32;;;2.15;;
71667;SDS011;59504;54.806;9.640;2022-12-07T07:50:35;9.25;;;1.90;;
71667;SDS011;59504;54.806;9.640;2022-12-07T07:52:56;7.45;;;1.67;;
71667;SDS011;59504;54.806;9.640;2022-12-07T07:55:16;7.70;;;1.70;;
71667;SDS011;59504;54.806;9.640;2022-12-07T07:57:35;7.50;;;1.73;;
71667;SDS011;59504;54.806;9.640;2022-12-07T07:59:56;7.80;;;1.25;;
71667;SDS011;59504;54.806;9.640;2022-12-07T08:02:16;9.23;;;1.23;;
71667;SDS011;59504;54.806;9.640;2022-12-07T08:04:36;5.32;;;1.15;;
71667;SDS011;59504;54.806;9.640;2022-12-07T08:06:56;7.40;;;1.25;;
71667;SDS011;59504;54.806;9.640;2022-12-07T08:09:15;14.15;;;1.50;;
71667;SDS011;59504;54.806;9.640;2022-12-07T08:11:34;5.65;;;1.25;;
71667;SDS011;59504;54.806;9.640;2022-12-07T08:13:55;5.78;;;1.20;;
71667;SDS011;59504;54.806;9.640;2022-12-07T08:16:14;9.52;;;1.52;;
71667;SDS011;59504;54.806;9.640;2022-12-07T08:18:37;7.80;;;1.50;;
71667;SDS011;59504;54.806;9.640;2022-12-07T08:21:00;5.78;;;1.00;;
71667;SDS011;59504;54.806;9.640;2022-12-07T08:23:20;11.13;;;1.35;;
71667;SDS011;59504;54.806;9.640;2022-12-07T08:25:39;5.25;;;1.00;;
71667;SDS011;59504;54.806;9.640;2022-12-07T08:27:59;7.40;;;0.95;;
71667;SDS011;59504;54.806;9.640;2022-12-07T08:30:19;7.80;;;1.63;;
71667;SDS011;59504;54.806;9.640;2022-12-07T08:32:39;9.77;;;1.35;;
71667;SDS011;59504;54.806;9.640;2022-12-07T08:34:58;4.00;;;1.05;;
71667;SDS011;59504;54.806;9.640;2022-12-07T08:37:17;9.23;;;1.00;;
71667;SDS011;59504;54.806;9.640;2022-12-07T08:39:36;5.07;;;1.38;;
71667;SDS011;59504;54.806;9.640;2022-12-07T08:41:55;14.32;;;1.67;;
71667;SDS011;59504;54.806;9.640;2022-12-07T08:44:14;6.72;;;1.45;;
71667;SDS011;59504;54.806;9.640;2022-12-07T08:46:38;5.20;;;0.98;;
71667;SDS011;59504;54.806;9.640;2022-12-07T08:49:05;8.25;;;0.88;;
71667;SDS011;59504;54.806;9.640;2022-12-07T08:51:25;10.05;;;1.35;;
71667;SDS011;59504;54.806;9.640;2022-12-07T08:53:45;4.57;;;1.15;;
71667;SDS011;59504;54.806;9.640;2022-12-07T08:56:04;10.70;;;2.50;;
71667;SDS011;59504;54.806;9.640;2022-12-07T08:58:25;6.10;;;1.88;;
71667;SDS011;59504;54.806;9.640;2022-12-07T09:00:45;10.35;;;1.50;;
71667;SDS011;59504;54.806;9.640;2022-12-07T09:03:04;7.07;;;1.52;;
71667;SDS011;59504;54.806;9.640;2022-12-07T09:05:23;4.35;;;1.10;;
71667;SDS011;59504;54.806;9.640;2022-12-07T09:07:43;10.43;;;1.38;;
71667;SDS011;59504;54.806;9.640;2022-12-07T09:10:04;11.50;;;1.75;;
71667;SDS011;59504;54.806;9.640;2022-12-07T09:12:24;11.10;;;1.48;;
71667;SDS011;59504;54.806;9.640;2022-12-07T09:14:44;6.22;;;1.88;;
71667;SDS011;59504;54.806;9.640;2022-12-07T09:17:09;8.40;;;2.10;;
71667;SDS011;59504;54.806;9.640;2022-12-07T09:19:30;14.85;;;2.45;;
71667;SDS011;59504;54.806;9.640;2022-12-07T09:21:49;4.57;;;1.10;;
71667;SDS011;59504;54.806;9.640;2022-12-07T09:24:09;4.03;;;1.20;;
71667;SDS011;59504;54.806;9.640;2022-12-07T09:26:28;4.50;;;1.02;;
71667;SDS011;59504;54.806;9.640;2022-12-07T09:28:47;5.00;;;1.15;;
71667;SDS011;59504;54.806;9.640;2022-12-07T09:31:06;8.40;;;0.82;;
71667;SDS011;59504;54.806;9.640;2022-12-07T09:33:25;6.88;;;0.70;;
71667;SDS011;59504;54.806;9.640;2022-12-07T09:35:45;3.38;;;1.10;;
71667;SDS011;59504;54.806;9.640;2022-12-07T09:38:05;3.47;;;0.88;;
71667;SDS011;59504;54.806;9.640;2022-12-07T09:40:25;3.28;;;0.75;;
71667;SDS011;59504;54.806;9.640;2022-12-07T09:42:45;5.20;;;0.95;;
71667;SDS011;59504;54.806;9.640;2022-12-07T09:45:10;2.97;;;0.70;;
71667;SDS011;59504;54.806;9.640;2022-12-07T09:47:32;3.30;;;1.02;;
71667;SDS011;59504;54.806;9.640;2022-12-07T09:49:55;6.45;;;1.92;;
71667;SDS011;59504;54.806;9.640;2022-12-07T09:52:25;11.88;;;1.98;;
71667;SDS011;59504;54.806;9.640;2022-12-07T09:54:47;7.25;;;1.45;;
71667;SDS011;59504;54.806;9.640;2022-12-07T09:57:08;11.95;;;1.73;;
71667;SDS011;59504;54.806;9.640;2022-12-07T09:59:30;10.52;;;1.17;;
71667;SDS011;59504;54.806;9.640;2022-12-07T10:01:50;4.40;;;1.13;;
71667;SDS011;59504;54.806;9.640;2022-12-07T10:06:39;3.60;;;1.05;;
71667;SDS011;59504;54.806;9.640;2022-12-07T10:08:59;6.13;;;1.23;;
71667;SDS011;59504;54.806;9.640;2022-12-07T10:11:19;2.38;;;1.00;;
71667;SDS011;59504;54.806;9.640;2022-12-07T10:13:39;3.38;;;0.80;;
71667;SDS011;59504;54.806;9.640;2022-12-07T10:15:59;9.57;;;1.92;;
71667;SDS011;59504;54.806;9.640;2022-12-07T10:18:20;5.65;;;1.08;;
71667;SDS011;59504;54.806;9.640;2022-12-07T10:20:40;7.03;;;1.40;;
71667;SDS011;59504;54.806;9.640;2022-12-07T10:23:03;7.40;;;2.53;;
71667;SDS011;59504;54.806;9.640;2022-12-07T10:25:25;21.00;;;5.50;;
71667;SDS011;59504;54.806;9.640;2022-12-07T10:27:58;9.85;;;2.35;;
71667;SDS011;59504;54.806;9.640;2022-12-07T10:30:19;7.53;;;2.47;;
71667;SDS011;59504;54.806;9.640;2022-12-07T10:32:39;5.40;;;1.67;;
71667;SDS011;59504;54.806;9.640;2022-12-07T10:35:33;5.65;;;1.70;;
71667;SDS011;59504;54.806;9.640;2022-12-07T10:37:47;7.88;;;2.20;;
71667;SDS011;59504;54.806;9.640;2022-12-07T10:40:23;9.30;;;1.73;;
71667;SDS011;59504;54.806;9.640;2022-12-07T10:42:45;8.45;;;1.10;;
71667;SDS011;59504;54.806;9.640;2022-12-07T10:45:23;9.68;;;2.35;;
71667;SDS011;59504;54.806;9.640;2022-12-07T10:50:24;8.30;;;1.63;;
71667;SDS011;59504;54.806;9.640;2022-12-07T10:55:55;12.93;;;3.42;;
71667;SDS011;59504;54.806;9.640;2022-12-07T10:58:31;11.30;;;1.38;;
71667;SDS011;59504;54.806;9.640;2022-12-07T11:01:01;3.40;;;0.82;;
71667;SDS011;59504;54.806;9.640;2022-12-07T11:03:46;7.93;;;1.30;;
71667;SDS011;59504;54.806;9.640;2022-12-07T11:06:33;3.50;;;0.95;;
71667;SDS011;59504;54.806;9.640;2022-12-07T11:09:24;6.82;;;1.00;;
71667;SDS011;59504;54.806;9.640;2022-12-07T11:14:37;2.70;;;0.75;;
71667;SDS011;59504;54.806;9.640;2022-12-07T11:17:09;5.30;;;0.77;;
71667;SDS011;59504;54.806;9.640;2022-12-07T11:22:40;3.35;;;0.52;;
71667;SDS011;59504;54.806;9.640;2022-12-07T11:27:41;6.15;;;0.50;;
71667;SDS011;59504;54.806;9.640;2022-12-07T11:30:33;8.65;;;1.42;;
71667;SDS011;59504;54.806;9.640;2022-12-07T11:38:35;2.53;;;0.57;;
71667;SDS011;59504;54.806;9.640;2022-12-07T11:41:06;3.80;;;0.50;;
71667;SDS011;59504;54.806;9.640;2022-12-07T11:43:33;2.20;;;0.38;;
71667;SDS011;59504;54.806;9.640;2022-12-07T11:46:04;3.55;;;0.40;;
71667;SDS011;59504;54.806;9.640;2022-12-07T11:48:35;6.38;;;0.57;;
71667;SDS011;59504;54.806;9.640;2022-12-07T11:51:01;2.25;;;0.38;;
71667;SDS011;59504;54.806;9.640;2022-12-07T11:56:10;2.30;;;0.52;;
71667;SDS011;59504;54.806;9.640;2022-12-07T12:03:34;3.42;;;1.60;;
71667;SDS011;59504;54.806;9.640;2022-12-07T12:05:59;5.32;;;1.33;;
71667;SDS011;59504;54.806;9.640;2022-12-07T12:08:20;3.97;;;0.82;;
71667;SDS011;59504;54.806;9.640;2022-12-07T12:13:37;2.80;;;0.95;;
71667;SDS011;59504;54.806;9.640;2022-12-07T12:21:30;1.42;;;0.90;;
71667;SDS011;59504;54.806;9.640;2022-12-07T12:23:54;5.22;;;1.10;;
71667;SDS011;59504;54.806;9.640;2022-12-07T12:26:17;4.25;;;1.95;;
71667;SDS011;59504;54.806;9.640;2022-12-07T12:28:40;4.65;;;1.13;;
71667;SDS011;59504;54.806;9.640;2022-12-07T12:33:53;3.30;;;0.57;;
71667;SDS011;59504;54.806;9.640;2022-12-07T12:36:42;8.10;;;1.48;;
71667;SDS011;59504;54.806;9.640;2022-12-07T12:39:16;1.38;;;0.50;;
71667;SDS011;59504;54.806;9.640;2022-12-07T12:46:37;5.97;;;0.77;;
71667;SDS011;59504;54.806;9.640;2022-12-07T12:51:36;2.83;;;0.52;;
71667;SDS011;59504;54.806;9.640;2022-12-07T12:54:05;4.35;;;0.98;;
71667;SDS011;59504;54.806;9.640;2022-12-07T12:59:32;2.60;;;0.63;;
71667;SDS011;59504;54.806;9.640;2022-12-07T13:01:58;2.13;;;0.40;;
71667;SDS011;59504;54.806;9.640;2022-12-07T13:18:00;3.25;;;0.70;;
71667;SDS011;59504;54.806;9.640;2022-12-07T13:20:40;2.13;;;0.57;;
71667;SDS011;59504;54.806;9.640;2022-12-07T13:23:10;2.80;;;0.80;;
71667;SDS011;59504;54.806;9.640;2022-12-07T13:25:46;1.52;;;0.50;;
71667;SDS011;59504;54.806;9.640;2022-12-07T13:28:16;2.70;;;1.00;;
71667;SDS011;59504;54.806;9.640;2022-12-07T13:33:32;2.75;;;0.80;;
71667;SDS011;59504;54.806;9.640;2022-12-07T13:35:54;4.57;;;0.60;;
71667;SDS011;59504;54.806;9.640;2022-12-07T13:38:27;3.90;;;0.82;;
71667;SDS011;59504;54.806;9.640;2022-12-07T13:43:43;2.03;;;0.40;;
71667;SDS011;59504;54.806;9.640;2022-12-07T13:46:12;0.95;;;0.40;;
71667;SDS011;59504;54.806;9.640;2022-12-07T13:48:41;3.03;;;0.40;;
71667;SDS011;59504;54.806;9.640;2022-12-07T13:51:03;1.90;;;0.73;;
71667;SDS011;59504;54.806;9.640;2022-12-07T13:53:45;2.53;;;0.50;;
71667;SDS011;59504;54.806;9.640;2022-12-07T13:56:12;4.60;;;0.63;;
71667;SDS011;59504;54.806;9.640;2022-12-07T13:58:33;2.28;;;0.60;;
71667;SDS011;59504;54.806;9.640;2022-12-07T14:00:52;1.05;;;0.50;;
71667;SDS011;59504;54.806;9.640;2022-12-07T14:05:32;2.55;;;0.47;;
71667;SDS011;59504;54.806;9.640;2022-12-07T14:10:22;1.65;;;0.50;;
71667;SDS011;59504;54.806;9.640;2022-12-07T14:12:45;3.42;;;0.50;;
71667;SDS011;59504;54.806;9.640;2022-12-07T14:15:04;2.15;;;0.75;;
71667;SDS011;59504;54.806;9.640;2022-12-07T14:17:25;5.47;;;1.10;;
71667;SDS011;59504;54.806;9.640;2022-12-07T14:22:20;4.50;;;0.67;;
71667;SDS011;59504;54.806;9.640;2022-12-07T14:27:33;1.73;;;0.70;;
71667;SDS011;59504;54.806;9.640;2022-12-07T14:29:52;3.30;;;0.70;;
71667;SDS011;59504;54.806;9.640;2022-12-07T14:34:37;2.05;;;0.65;;
71667;SDS011;59504;54.806;9.640;2022-12-07T14:36:56;3.67;;;0.80;;
71667;SDS011;59504;54.806;9.640;2022-12-07T14:39:16;2.35;;;0.95;;
71667;SDS011;59504;54.806;9.640;2022-12-07T14:41:35;2.72;;;1.10;;
71667;SDS011;59504;54.806;9.640;2022-12-07T14:44:11;2.42;;;0.80;;
71667;SDS011;59504;54.806;9.640;2022-12-07T14:46:31;2.30;;;0.82;;
71667;SDS011;59504;54.806;9.640;2022-12-07T14:48:50;4.18;;;0.60;;
71667;SDS011;59504;54.806;9.640;2022-12-07T14:51:10;1.50;;;0.52;;
71667;SDS011;59504;54.806;9.640;2022-12-07T14:53:35;1.90;;;0.55;;
71667;SDS011;59504;54.806;9.640;2022-12-07T14:55:57;1.45;;;0.52;;
71667;SDS011;59504;54.806;9.640;2022-12-07T14:58:17;1.98;;;0.60;;
71667;SDS011;59504;54.806;9.640;2022-12-07T15:00:36;1.38;;;0.43;;
71667;SDS011;59504;54.806;9.640;2022-12-07T15:02:55;1.67;;;0.65;;
71667;SDS011;59504;54.806;9.640;2022-12-07T15:05:15;1.35;;;0.55;;
71667;SDS011;59504;54.806;9.640;2022-12-07T15:07:35;2.45;;;0.50;;
71667;SDS011;59504;54.806;9.640;2022-12-07T15:09:54;3.13;;;0.50;;
71667;SDS011;59504;54.806;9.640;2022-12-07T15:12:14;1.40;;;0.40;;
71667;SDS011;59504;54.806;9.640;2022-12-07T15:14:33;2.95;;;0.73;;
71667;SDS011;59504;54.806;9.640;2022-12-07T15:16:52;1.65;;;0.70;;
71667;SDS011;59504;54.806;9.640;2022-12-07T15:19:22;1.98;;;0.85;;
71667;SDS011;59504;54.806;9.640;2022-12-07T15:21:44;2.85;;;1.33;;
71667;SDS011;59504;54.806;9.640;2022-12-07T15:24:04;2.25;;;1.40;;
71667;SDS011;59504;54.806;9.640;2022-12-07T15:26:27;5.05;;;1.25;;
71667;SDS011;59504;54.806;9.640;2022-12-07T15:28:47;1.25;;;0.90;;
71667;SDS011;59504;54.806;9.640;2022-12-07T15:31:12;3.10;;;0.75;;
71667;SDS011;59504;54.806;9.640;2022-12-07T15:33:32;1.60;;;0.90;;
71667;SDS011;59504;54.806;9.640;2022-12-07T15:35:51;1.35;;;0.65;;
71667;SDS011;59504;54.806;9.640;2022-12-07T15:38:11;5.47;;;1.70;;
71667;SDS011;59504;54.806;9.640;2022-12-07T15:40:30;2.65;;;0.90;;
71667;SDS011;59504;54.806;9.640;2022-12-07T15:42:50;3.03;;;0.70;;
71667;SDS011;59504;54.806;9.640;2022-12-07T15:45:10;2.58;;;0.70;;
71667;SDS011;59504;54.806;9.640;2022-12-07T15:47:30;3.78;;;0.88;;
71667;SDS011;59504;54.806;9.640;2022-12-07T15:49:54;2.20;;;0.63;;
71667;SDS011;59504;54.806;9.640;2022-12-07T15:52:13;3.33;;;1.40;;
71667;SDS011;59504;54.806;9.640;2022-12-07T15:54:36;2.35;;;1.30;;
71667;SDS011;59504;54.806;9.640;2022-12-07T15:59:59;2.88;;;1.38;;
71667;SDS011;59504;54.806;9.640;2022-12-07T16:02:25;6.35;;;1.85;;
71667;SDS011;59504;54.806;9.640;2022-12-07T16:04:47;5.05;;;1.30;;
71667;SDS011;59504;54.806;9.640;2022-12-07T16:07:07;3.15;;;1.00;;